EDDH/HAM METAR and TAF weather

Enter ICAO airport designator
Station Type Date Time Source
EDDH METAR 2020/05/30 06:20 UTC NOAA

EDDH 300620Z 04004KT 340V080 CAVOK 16/08 Q1027 NOSIG


Station Type Date Time Source
EDDH Decoded METAR 2020/05/30 06:20 UTC NOAA

Hamburg-Fuhlsbuettel, Germany (EDDH) 53-38N 010-00E 15M
May 30, 2020 - 02:20 AM EDT / 2020.05.30 0620 UTC
Wind: from the NE (040 degrees) at 5 MPH (4 KT) (direction variable):0
Visibility: greater than 7 mile(s):0
Temperature: 60 F (16 C)
Dew Point: 46 F (8 C)
Relative Humidity: 58%
Pressure (altimeter): 30.33 in. Hg (1027 hPa)
ob: EDDH 300620Z 04004KT 340V080 CAVOK 16/08 Q1027 NOSIG
cycle: 6

Station Type Date Time Source
EDDH TAF 2020/05/30 06:27 UTC NOAA

TAF EDDH 300500Z 3006/3112 05004KT CAVOK
BECMG 3008/3010 05010KT
BECMG 3018/3020 02004KT
BECMG 3106/3108 05012KT

Example: see airport list